Time;durP1;ratioP1;P1;durP2;ratioP2;P2;SDS_P1;SDS_P2;PMS_P1;PMS_P2;Temp;Humidity;BMP_temperature;BMP_pressure;BME280_temperature;BME280_humidity;BME280_pressure;Samples;Min_cycle;Max_cycle;Signal;HPM_P1;HPM_P2
2023/02/17 00:01:33;;;;;;;;;10.75;10.75;;;;;;;;5046236;28;9368;-74
2023/02/17 00:04:01;;;;;;;;;10.00;9.25;;;;;;;;5025439;28;9508;-75
2023/02/17 00:06:31;;;;;;;;;9.75;9.75;;;;;;;;5038473;28;10345;-75
2023/02/17 00:09:00;;;;;;;;;11.75;8.00;;;;;;;;5025994;28;9468;-75
2023/02/17 00:11:28;;;;;;;;;11.00;8.33;;;;;;;;5040143;28;10319;-75
2023/02/17 00:13:55;;;;;;;;;7.00;7.00;;;;;;;;5046622;28;9305;-76
2023/02/17 00:16:26;;;;;;;;;8.67;8.67;;;;;;;;5044466;28;10158;-75
2023/02/17 00:18:55;;;;;;;;;7.00;6.67;;;;;;;;5048787;28;10106;-75
2023/02/17 00:21:24;;;;;;;;;10.00;10.00;;;;;;;;5028272;28;9464;-75
2023/02/17 00:23:52;;;;;;;;;10.00;7.67;;;;;;;;5042312;28;9523;-75
2023/02/17 00:26:20;;;;;;;;;10.33;9.00;;;;;;;;5051672;28;9420;-76
2023/02/17 00:28:49;;;;;;;;;9.00;8.33;;;;;;;;5028838;28;9476;-76
2023/02/17 00:31:18;;;;;;;;;10.00;10.00;;;;;;;;5027117;28;9261;-75
2023/02/17 00:33:47;;;;;;;;;12.33;11.00;;;;;;;;5042204;28;9414;-75
2023/02/17 00:36:18;;;;;;;;;8.00;8.00;;;;;;;;5031047;28;9398;-76
2023/02/17 00:38:47;;;;;;;;;10.33;9.00;;;;;;;;5046868;28;9364;-75
2023/02/17 00:41:15;;;;;;;;;13.00;10.00;;;;;;;;5039249;28;9422;-75
2023/02/17 00:43:43;;;;;;;;;9.67;9.67;;;;;;;;5037527;28;9479;-75
2023/02/17 00:46:10;;;;;;;;;9.00;6.67;;;;;;;;5042286;28;9417;-75
2023/02/17 00:48:38;;;;;;;;;10.67;7.67;;;;;;;;5013271;28;10116;-75
2023/02/17 00:51:07;;;;;;;;;7.00;6.00;;;;;;;;5048828;28;9301;-75
2023/02/17 00:53:34;;;;;;;;;7.00;7.00;;;;;;;;5051461;28;9360;-77
2023/02/17 00:56:02;;;;;;;;;9.25;8.25;;;;;;;;5043612;28;10038;-75
2023/02/17 00:58:29;;;;;;;;;8.25;8.25;;;;;;;;5048421;28;9405;-75
2023/02/17 01:00:58;;;;;;;;;7.00;7.00;;;;;;;;5030139;28;9455;-75
2023/02/17 01:03:26;;;;;;;;;7.00;7.00;;;;;;;;5046328;28;9469;-75
2023/02/17 01:05:54;;;;;;;;;7.33;7.33;;;;;;;;5038032;28;9507;-75
2023/02/17 01:08:24;;;;;;;;;10.75;7.00;;;;;;;;5047576;28;9487;-76
2023/02/17 01:10:53;;;;;;;;;10.25;10.25;;;;;;;;5042150;28;9392;-75
2023/02/17 01:13:20;;;;;;;;;10.50;8.50;;;;;;;;5047096;28;9469;-76
2023/02/17 01:15:49;;;;;;;;;8.50;8.50;;;;;;;;5041752;28;9411;-76
2023/02/17 01:18:18;;;;;;;;;8.00;7.00;;;;;;;;5037417;28;10312;-75
2023/02/17 01:20:46;;;;;;;;;9.33;9.33;;;;;;;;5042803;28;9402;-75
2023/02/17 01:23:13;;;;;;;;;10.00;10.00;;;;;;;;5020001;28;9417;-75
2023/02/17 01:25:44;;;;;;;;;7.00;7.00;;;;;;;;5037090;28;9433;-75
2023/02/17 01:28:15;;;;;;;;;11.00;9.67;;;;;;;;5026695;28;9356;-75
2023/02/17 01:30:43;;;;;;;;;10.50;10.50;;;;;;;;5042145;28;10188;-74
2023/02/17 01:33:11;;;;;;;;;11.25;10.50;;;;;;;;5040947;28;9482;-75
2023/02/17 01:35:38;;;;;;;;;9.50;9.25;;;;;;;;5047736;28;9534;-75
2023/02/17 01:38:06;;;;;;;;;9.50;9.50;;;;;;;;5044955;28;9603;-75
2023/02/17 01:40:33;;;;;;;;;10.00;8.00;;;;;;;;5028284;28;9493;-75
2023/02/17 01:43:02;;;;;;;;;13.00;11.50;;;;;;;;5045212;28;9481;-76
2023/02/17 01:45:44;;;;;;;;;10.50;6.75;;;;;;;;5048183;28;9561;-75
2023/02/17 01:48:13;;;;;;;;;7.50;7.50;;;;;;;;5040945;28;10326;-74
2023/02/17 01:50:44;;;;;;;;;9.00;9.00;;;;;;;;5044722;28;9635;-76
2023/02/17 01:53:15;;;;;;;;;11.67;11.67;;;;;;;;5028932;28;9522;-75
2023/02/17 01:55:43;;;;;;;;;13.00;11.00;;;;;;;;5040276;28;9345;-75
2023/02/17 01:58:13;;;;;;;;;10.50;10.50;;;;;;;;5036471;28;9492;-75
2023/02/17 02:00:41;;;;;;;;;14.25;12.00;;;;;;;;5042585;28;9316;-75
2023/02/17 02:03:10;;;;;;;;;9.33;9.33;;;;;;;;5042949;28;9570;-75
2023/02/17 02:05:38;;;;;;;;;8.50;8.50;;;;;;;;5040569;28;9491;-75
2023/02/17 02:08:06;;;;;;;;;12.75;10.75;;;;;;;;5043963;28;9390;-76
2023/02/17 02:10:34;;;;;;;;;10.50;10.50;;;;;;;;5035741;28;9510;-76
2023/02/17 02:13:01;;;;;;;;;13.75;11.75;;;;;;;;5023611;28;9467;-77
2023/02/17 02:15:35;;;;;;;;;7.50;7.00;;;;;;;;5037081;28;10334;-75
2023/02/17 02:18:25;;;;;;;;;11.25;9.50;;;;;;;;5039318;28;9552;-75
2023/02/17 02:21:17;;;;;;;;;10.25;9.25;;;;;;;;5043804;28;9480;-75
2023/02/17 02:24:09;;;;;;;;;7.00;7.00;;;;;;;;5024766;28;9603;-75
2023/02/17 02:27:01;;;;;;;;;9.25;9.25;;;;;;;;5038368;28;9475;-75
2023/02/17 02:29:58;;;;;;;;;11.25;11.25;;;;;;;;5039357;28;9416;-75
2023/02/17 02:32:47;;;;;;;;;9.33;9.33;;;;;;;;5034516;28;9459;-75
2023/02/17 02:35:19;;;;;;;;;11.00;9.00;;;;;;;;5029296;28;9435;-75
2023/02/17 02:37:50;;;;;;;;;9.67;9.67;;;;;;;;5028187;28;9480;-75
2023/02/17 02:40:22;;;;;;;;;10.00;10.00;;;;;;;;5045565;28;9316;-75
2023/02/17 02:42:50;;;;;;;;;11.00;9.00;;;;;;;;5047178;28;9428;-75
2023/02/17 02:45:18;;;;;;;;;14.00;12.75;;;;;;;;5039961;28;9384;-76
2023/02/17 02:47:49;;;;;;;;;10.50;10.00;;;;;;;;5041511;28;9495;-76
2023/02/17 02:50:19;;;;;;;;;9.33;9.33;;;;;;;;5027471;28;9464;-75
2023/02/17 02:52:58;;;;;;;;;14.67;11.33;;;;;;;;5036986;28;9411;-75
2023/02/17 02:55:37;;;;;;;;;11.00;11.00;;;;;;;;5045310;28;9382;-75
2023/02/17 02:58:10;;;;;;;;;12.00;10.67;;;;;;;;5042175;28;9492;-75
2023/02/17 03:00:45;;;;;;;;;10.00;10.00;;;;;;;;5034680;28;9382;-75
2023/02/17 03:03:19;;;;;;;;;9.00;9.00;;;;;;;;5041393;28;9460;-75
2023/02/17 03:05:55;;;;;;;;;9.67;9.67;;;;;;;;5021814;28;9247;-75
2023/02/17 03:08:30;;;;;;;;;12.00;12.00;;;;;;;;5040037;28;9270;-75
2023/02/17 03:10:57;;;;;;;;;15.67;12.67;;;;;;;;5031040;28;9262;-74
2023/02/17 03:13:24;;;;;;;;;11.33;11.00;;;;;;;;5040735;28;9441;-74
2023/02/17 03:15:52;;;;;;;;;9.75;9.75;;;;;;;;5044876;28;9388;-76
2023/02/17 03:18:21;;;;;;;;;8.25;8.25;;;;;;;;5042110;28;9403;-75
2023/02/17 03:20:54;;;;;;;;;10.33;10.33;;;;;;;;5044782;28;9417;-75
2023/02/17 03:23:22;;;;;;;;;11.33;10.67;;;;;;;;5044579;28;9249;-75
2023/02/17 03:25:49;;;;;;;;;11.33;10.00;;;;;;;;5047220;28;9338;-75
2023/02/17 03:28:17;;;;;;;;;10.67;10.00;;;;;;;;5048525;28;9412;-75
2023/02/17 03:30:44;;;;;;;;;10.75;10.75;;;;;;;;5027400;28;9305;-75
2023/02/17 03:33:12;;;;;;;;;10.67;10.67;;;;;;;;5045729;28;9558;-75
2023/02/17 03:35:41;;;;;;;;;11.67;10.33;;;;;;;;5043827;28;9380;-75
2023/02/17 03:38:08;;;;;;;;;10.00;9.67;;;;;;;;5015534;28;9531;-75
2023/02/17 03:40:36;;;;;;;;;12.33;10.67;;;;;;;;5025564;28;9474;-76
2023/02/17 03:43:03;;;;;;;;;9.25;9.25;;;;;;;;5032360;28;9329;-75
2023/02/17 03:45:31;;;;;;;;;10.33;10.33;;;;;;;;5015402;28;9488;-75
2023/02/17 03:47:58;;;;;;;;;11.00;11.00;;;;;;;;5050453;28;10096;-74
2023/02/17 03:50:26;;;;;;;;;11.00;11.00;;;;;;;;5044803;28;9394;-75
2023/02/17 03:52:55;;;;;;;;;13.75;11.25;;;;;;;;5026016;28;10267;-75
2023/02/17 03:55:22;;;;;;;;;12.50;12.50;;;;;;;;5047110;28;9562;-75
2023/02/17 03:57:50;;;;;;;;;11.75;11.75;;;;;;;;5046357;28;10293;-75
2023/02/17 04:00:18;;;;;;;;;11.75;10.00;;;;;;;;5046384;28;9444;-75
2023/02/17 04:02:45;;;;;;;;;15.67;14.00;;;;;;;;5053736;28;9474;-75
2023/02/17 04:05:12;;;;;;;;;10.33;10.00;;;;;;;;5026039;28;9344;-76
2023/02/17 04:07:40;;;;;;;;;13.00;11.33;;;;;;;;5047162;28;9464;-76
2023/02/17 04:10:10;;;;;;;;;12.00;12.00;;;;;;;;5049248;28;9313;-76
2023/02/17 04:12:38;;;;;;;;;11.25;11.25;;;;;;;;5046099;28;9533;-75
2023/02/17 04:15:06;;;;;;;;;10.00;10.00;;;;;;;;5032235;28;9442;-75
2023/02/17 04:17:33;;;;;;;;;14.75;13.75;;;;;;;;5043834;28;9323;-75
2023/02/17 04:20:01;;;;;;;;;12.25;12.25;;;;;;;;5031766;28;9473;-75
2023/02/17 04:22:28;;;;;;;;;15.75;13.25;;;;;;;;5043187;28;9576;-75
2023/02/17 04:24:56;;;;;;;;;13.50;12.25;;;;;;;;5032165;28;10337;-75
2023/02/17 04:27:25;;;;;;;;;12.75;12.50;;;;;;;;5045777;28;9540;-75
2023/02/17 04:29:53;;;;;;;;;13.25;12.00;;;;;;;;5051345;28;9617;-75
2023/02/17 04:32:20;;;;;;;;;15.25;14.00;;;;;;;;5043966;28;9366;-75
2023/02/17 04:34:48;;;;;;;;;10.75;10.75;;;;;;;;5011606;28;9619;-75
2023/02/17 04:37:15;;;;;;;;;13.25;13.25;;;;;;;;5043197;28;10305;-75
2023/02/17 04:39:43;;;;;;;;;13.50;11.75;;;;;;;;5044971;28;9579;-75
2023/02/17 04:42:10;;;;;;;;;14.75;11.75;;;;;;;;5050542;28;9383;-75
2023/02/17 04:44:41;;;;;;;;;13.50;11.75;;;;;;;;5049212;28;9480;-75
2023/02/17 04:47:08;;;;;;;;;14.75;14.75;;;;;;;;5047300;28;9424;-76
2023/02/17 04:49:36;;;;;;;;;11.67;9.67;;;;;;;;5047048;28;9538;-75
2023/02/17 04:52:04;;;;;;;;;13.00;11.25;;;;;;;;5050309;28;9313;-76
2023/02/17 04:54:31;;;;;;;;;10.75;10.75;;;;;;;;5027763;28;9583;-75
2023/02/17 04:56:58;;;;;;;;;14.67;10.00;;;;;;;;5029256;28;9470;-76
2023/02/17 04:59:26;;;;;;;;;12.50;12.50;;;;;;;;5043107;28;9390;-75
2023/02/17 05:01:55;;;;;;;;;8.75;8.75;;;;;;;;5046443;28;9487;-75
2023/02/17 05:04:22;;;;;;;;;12.33;8.00;;;;;;;;5043085;28;9475;-75
2023/02/17 05:06:50;;;;;;;;;13.00;12.00;;;;;;;;5049525;28;9376;-75
2023/02/17 05:09:17;;;;;;;;;11.75;10.00;;;;;;;;5045743;28;9479;-74
2023/02/17 05:11:45;;;;;;;;;11.75;11.75;;;;;;;;5047923;28;9553;-75
2023/02/17 05:14:12;;;;;;;;;11.00;9.00;;;;;;;;5047396;28;9504;-74
2023/02/17 05:16:40;;;;;;;;;11.67;11.67;;;;;;;;5046935;28;9488;-75
2023/02/17 05:19:09;;;;;;;;;13.50;12.75;;;;;;;;5045961;28;9383;-74
2023/02/17 05:21:36;;;;;;;;;13.00;11.67;;;;;;;;5038966;28;9472;-75
2023/02/17 05:24:04;;;;;;;;;12.00;12.00;;;;;;;;5044796;28;9380;-75
2023/02/17 05:26:31;;;;;;;;;11.33;11.33;;;;;;;;5026275;28;9412;-76
2023/02/17 05:28:59;;;;;;;;;12.00;11.33;;;;;;;;5042553;28;9328;-73
2023/02/17 05:31:26;;;;;;;;;11.00;11.00;;;;;;;;5046369;28;9378;-73
2023/02/17 05:33:54;;;;;;;;;7.00;7.00;;;;;;;;5053817;28;9482;-71
2023/02/17 05:36:23;;;;;;;;;12.25;12.25;;;;;;;;5050159;28;10130;-73
2023/02/17 05:38:50;;;;;;;;;13.00;13.00;;;;;;;;5046072;28;9583;-72
2023/02/17 05:41:18;;;;;;;;;4.75;4.75;;;;;;;;5042872;28;9521;-72
2023/02/17 05:43:46;;;;;;;;;13.67;13.67;;;;;;;;5044233;28;9500;-72
2023/02/17 05:46:14;;;;;;;;;12.50;12.00;;;;;;;;5049340;28;9327;-72
2023/02/17 05:48:43;;;;;;;;;9.00;9.00;;;;;;;;5047618;28;9476;-72
2023/02/17 05:51:12;;;;;;;;;13.50;12.75;;;;;;;;5046001;28;9491;-72
2023/02/17 05:53:41;;;;;;;;;11.50;11.00;;;;;;;;5045951;28;9410;-72
2023/02/17 05:56:08;;;;;;;;;14.00;14.00;;;;;;;;5045510;28;9476;-74
2023/02/17 05:58:36;;;;;;;;;13.33;11.33;;;;;;;;5043390;28;9394;-73
2023/02/17 06:01:08;;;;;;;;;12.00;10.33;;;;;;;;5047115;28;9455;-72
2023/02/17 06:03:35;;;;;;;;;11.33;11.33;;;;;;;;5044923;28;9431;-71
2023/02/17 06:06:03;;;;;;;;;10.33;10.33;;;;;;;;5048200;28;9390;-72
2023/02/17 06:08:30;;;;;;;;;10.00;10.00;;;;;;;;5042960;28;9371;-72
2023/02/17 06:10:59;;;;;;;;;10.00;10.00;;;;;;;;5048479;28;9307;-75
2023/02/17 06:13:27;;;;;;;;;13.75;12.25;;;;;;;;5040467;28;9373;-75
2023/02/17 06:15:54;;;;;;;;;11.33;11.33;;;;;;;;5043786;28;9384;-75
2023/02/17 06:18:22;;;;;;;;;10.67;10.00;;;;;;;;5043003;28;9243;-75
2023/02/17 06:20:50;;;;;;;;;10.00;10.00;;;;;;;;5041134;28;9316;-77
2023/02/17 06:23:18;;;;;;;;;9.00;9.00;;;;;;;;5044020;28;9351;-78
2023/02/17 06:25:45;;;;;;;;;11.00;11.00;;;;;;;;5040370;28;9480;-75
2023/02/17 06:28:14;;;;;;;;;13.00;12.00;;;;;;;;5036170;28;9327;-73
2023/02/17 06:30:42;;;;;;;;;12.00;12.00;;;;;;;;5039936;28;9489;-74
2023/02/17 06:33:09;;;;;;;;;13.33;11.33;;;;;;;;5021053;28;9344;-73
2023/02/17 06:35:36;;;;;;;;;9.00;7.00;;;;;;;;5046124;28;9420;-74
2023/02/17 06:38:04;;;;;;;;;11.33;11.33;;;;;;;;5019332;28;9392;-74
2023/02/17 06:40:32;;;;;;;;;4.00;4.00;;;;;;;;5039604;28;9386;-75
2023/02/17 06:42:59;;;;;;;;;12.00;12.00;;;;;;;;5038268;28;9275;-73
2023/02/17 06:45:28;;;;;;;;;14.33;12.33;;;;;;;;5018288;28;9388;-73
2023/02/17 06:47:55;;;;;;;;;13.33;13.00;;;;;;;;5042159;28;9382;-74
2023/02/17 06:50:23;;;;;;;;;13.00;11.00;;;;;;;;5037717;28;9317;-73
2023/02/17 06:52:50;;;;;;;;;14.00;14.00;;;;;;;;5040472;28;9414;-73
2023/02/17 06:55:18;;;;;;;;;9.00;9.00;;;;;;;;5040242;28;9469;-73
2023/02/17 06:57:45;;;;;;;;;12.33;10.00;;;;;;;;5042322;28;9409;-73
2023/02/17 07:00:13;;;;;;;;;13.00;12.00;;;;;;;;5035291;28;9386;-73
2023/02/17 07:02:42;;;;;;;;;14.00;13.50;;;;;;;;5038449;28;9432;-73
2023/02/17 07:05:09;;;;;;;;;14.33;12.67;;;;;;;;5037494;28;9396;-73
2023/02/17 07:07:37;;;;;;;;;7.33;5.33;;;;;;;;5019778;28;9340;-72
2023/02/17 07:10:06;;;;;;;;;14.00;13.25;;;;;;;;5040882;28;9455;-73
2023/02/17 07:12:34;;;;;;;;;18.67;12.67;;;;;;;;5025749;28;9491;-73
2023/02/17 07:15:01;;;;;;;;;13.00;13.00;;;;;;;;5026235;28;9351;-75
2023/02/17 07:17:29;;;;;;;;;13.00;11.00;;;;;;;;5026791;28;10237;-74
2023/02/17 07:19:58;;;;;;;;;20.00;16.00;;;;;;;;5039557;28;10234;-74
2023/02/17 07:22:25;;;;;;;;;17.00;13.75;;;;;;;;5043341;28;9468;-73
2023/02/17 07:24:53;;;;;;;;;11.00;11.00;;;;;;;;5036593;28;9386;-72
2023/02/17 07:27:20;;;;;;;;;14.00;14.00;;;;;;;;5037634;28;9323;-74
2023/02/17 07:29:48;;;;;;;;;17.50;17.50;;;;;;;;5034677;28;9468;-74
2023/02/17 07:32:15;;;;;;;;;13.00;13.00;;;;;;;;5034686;28;9478;-71
2023/02/17 07:34:42;;;;;;;;;19.25;15.50;;;;;;;;5031622;28;9503;-71
2023/02/17 07:37:11;;;;;;;;;13.33;13.33;;;;;;;;5014206;28;9477;-72
2023/02/17 07:39:39;;;;;;;;;14.00;14.00;;;;;;;;5035149;28;9335;-72
2023/02/17 07:42:06;;;;;;;;;13.33;12.00;;;;;;;;5037122;28;9410;-73
2023/02/17 07:44:34;;;;;;;;;12.67;12.67;;;;;;;;5036454;28;9472;-72
2023/02/17 07:47:01;;;;;;;;;13.67;13.67;;;;;;;;5044442;28;10201;-72
2023/02/17 07:49:29;;;;;;;;;11.25;11.25;;;;;;;;5043848;28;9411;-72
2023/02/17 07:51:57;;;;;;;;;13.00;11.75;;;;;;;;5016821;28;9463;-71
2023/02/17 07:54:26;;;;;;;;;14.33;12.33;;;;;;;;5038473;28;9418;-72
2023/02/17 07:56:53;;;;;;;;;7.67;7.67;;;;;;;;5020979;28;9424;-72
2023/02/17 07:59:20;;;;;;;;;13.33;11.67;;;;;;;;5045870;28;9247;-72
2023/02/17 08:01:48;;;;;;;;;10.67;10.67;;;;;;;;5044609;28;9204;-72
2023/02/17 08:04:16;;;;;;;;;12.33;12.33;;;;;;;;5050170;28;10183;-72
2023/02/17 08:06:44;;;;;;;;;14.00;13.33;;;;;;;;5019690;28;9325;-71
2023/02/17 08:14:43;;;;;;;;;13.67;10.67;;;;;;;;5028788;28;9435;-71
2023/02/17 08:17:10;;;;;;;;;14.33;14.33;;;;;;;;5006768;28;9236;-70
2023/02/17 08:19:37;;;;;;;;;11.67;9.00;;;;;;;;5044856;28;9216;-72
2023/02/17 08:22:05;;;;;;;;;10.00;10.00;;;;;;;;5028905;28;9171;-72
2023/02/17 08:24:33;;;;;;;;;14.00;12.33;;;;;;;;5048605;28;9239;-71
2023/02/17 08:27:02;;;;;;;;;8.33;8.33;;;;;;;;5002432;28;9180;-70
2023/02/17 08:29:29;;;;;;;;;11.33;9.33;;;;;;;;5049923;28;9201;-72
2023/02/17 08:31:56;;;;;;;;;11.00;10.00;;;;;;;;5044678;28;9157;-72
2023/02/17 08:34:24;;;;;;;;;12.33;11.33;;;;;;;;5024794;28;9093;-73
2023/02/17 08:36:51;;;;;;;;;9.67;9.67;;;;;;;;5046722;28;9277;-71
2023/02/17 08:39:19;;;;;;;;;9.33;9.33;;;;;;;;5043394;28;9158;-69
2023/02/17 08:41:47;;;;;;;;;14.33;12.67;;;;;;;;5046495;28;9193;-71
2023/02/17 08:44:19;;;;;;;;;9.00;9.00;;;;;;;;5041169;28;9095;-71
2023/02/17 08:46:48;;;;;;;;;13.67;12.00;;;;;;;;5046242;28;9084;-71
2023/02/17 08:49:16;;;;;;;;;8.00;8.00;;;;;;;;5027207;28;9154;-72
2023/02/17 08:51:44;;;;;;;;;11.33;10.00;;;;;;;;5043603;28;9161;-71
2023/02/17 08:54:11;;;;;;;;;12.67;9.67;;;;;;;;5045605;28;9095;-71
2023/02/17 08:56:40;;;;;;;;;4.00;4.00;;;;;;;;5027061;28;9060;-71
2023/02/17 08:59:08;;;;;;;;;7.67;7.00;;;;;;;;5037596;28;8999;-72
2023/02/17 09:01:38;;;;;;;;;9.00;9.00;;;;;;;;5037680;28;8912;-72
2023/02/17 09:04:07;;;;;;;;;11.00;9.67;;;;;;;;5028250;28;8990;-73
2023/02/17 09:06:36;;;;;;;;;7.67;7.67;;;;;;;;5039500;28;8961;-71
2023/02/17 09:09:05;;;;;;;;;11.00;5.67;;;;;;;;5040158;28;9011;-72
2023/02/17 09:11:32;;;;;;;;;10.00;8.50;;;;;;;;5035516;28;9897;-71
2023/02/17 09:14:00;;;;;;;;;9.33;9.33;;;;;;;;5019161;28;9029;-71
2023/02/17 09:16:28;;;;;;;;;8.75;7.75;;;;;;;;5037614;28;8956;-71
2023/02/17 09:18:57;;;;;;;;;6.50;6.00;;;;;;;;5017519;28;8879;-71
2023/02/17 09:21:25;;;;;;;;;8.00;8.00;;;;;;;;5038725;28;8835;-71
2023/02/17 09:23:52;;;;;;;;;9.50;9.50;;;;;;;;5021800;28;8907;-72
2023/02/17 09:26:20;;;;;;;;;5.75;5.75;;;;;;;;5037502;28;8863;-70
2023/02/17 09:28:48;;;;;;;;;4.00;4.00;;;;;;;;5036807;28;9011;-72
2023/02/17 09:31:19;;;;;;;;;6.75;4.75;;;;;;;;5018348;28;8787;-70
2023/02/17 09:33:48;;;;;;;;;5.75;3.75;;;;;;;;5040147;28;8849;-71
2023/02/17 09:36:19;;;;;;;;;7.25;7.25;;;;;;;;5041494;28;8877;-71
2023/02/17 09:38:47;;;;;;;;;6.00;6.00;;;;;;;;5020298;28;8858;-71
2023/02/17 09:41:21;;;;;;;;;7.00;7.00;;;;;;;;5022936;28;8856;-71
2023/02/17 09:43:49;;;;;;;;;6.00;6.00;;;;;;;;5039336;28;8912;-71
2023/02/17 09:46:21;;;;;;;;;9.00;6.50;;;;;;;;5038532;28;8854;-72
2023/02/17 09:48:50;;;;;;;;;7.00;6.00;;;;;;;;5043202;28;8865;-71
2023/02/17 09:51:23;;;;;;;;;4.25;3.25;;;;;;;;5021346;28;9978;-72
2023/02/17 09:53:56;;;;;;;;;4.75;4.75;;;;;;;;5040260;28;8854;-73
2023/02/17 09:56:29;;;;;;;;;5.75;5.75;;;;;;;;5037765;28;8854;-73
2023/02/17 09:59:00;;;;;;;;;5.75;4.25;;;;;;;;5039632;28;8851;-73
2023/02/17 10:01:31;;;;;;;;;5.00;5.00;;;;;;;;5037741;28;8833;-72
2023/02/17 10:04:06;;;;;;;;;4.25;4.25;;;;;;;;5043122;28;8846;-71
2023/02/17 10:06:37;;;;;;;;;4.00;4.00;;;;;;;;5041791;28;8850;-71
2023/02/17 10:09:09;;;;;;;;;3.00;3.00;;;;;;;;5035173;28;8857;-71
2023/02/17 10:11:41;;;;;;;;;5.50;4.00;;;;;;;;5034366;28;9673;-70
2023/02/17 10:14:13;;;;;;;;;4.50;4.00;;;;;;;;5032510;28;8862;-70
2023/02/17 10:16:48;;;;;;;;;2.00;2.00;;;;;;;;5034025;28;9690;-71
2023/02/17 10:19:19;;;;;;;;;4.00;4.00;;;;;;;;5039749;28;8862;-71
2023/02/17 10:21:51;;;;;;;;;2.75;2.75;;;;;;;;5033234;28;8835;-71
2023/02/17 10:24:19;;;;;;;;;3.00;3.00;;;;;;;;5036104;28;8852;-71
2023/02/17 10:27:06;;;;;;;;;2.50;2.50;;;;;;;;5034681;28;8963;-70
2023/02/17 10:29:41;;;;;;;;;2.25;2.25;;;;;;;;5015585;28;8896;-70
2023/02/17 10:32:22;;;;;;;;;3.75;3.75;;;;;;;;5035509;28;8835;-71
2023/02/17 10:35:14;;;;;;;;;2.75;2.00;;;;;;;;5040312;28;8854;-71
2023/02/17 10:37:47;;;;;;;;;3.75;3.75;;;;;;;;5032579;28;8868;-70
2023/02/17 10:40:19;;;;;;;;;2.25;2.25;;;;;;;;5039954;28;8859;-70
2023/02/17 10:42:48;;;;;;;;;1.25;1.25;;;;;;;;5041629;28;8853;-70
2023/02/17 10:45:25;;;;;;;;;1.75;1.75;;;;;;;;5037010;28;8846;-71
2023/02/17 10:47:57;;;;;;;;;1.00;1.00;;;;;;;;5034418;28;8893;-70
2023/02/17 10:50:26;;;;;;;;;2.00;2.00;;;;;;;;5039008;28;8863;-71
2023/02/17 10:52:56;;;;;;;;;1.75;1.75;;;;;;;;5037299;28;8882;-70
2023/02/17 10:55:31;;;;;;;;;1.00;1.00;;;;;;;;5034189;28;8897;-70
2023/02/17 10:58:06;;;;;;;;;2.00;2.00;;;;;;;;5036343;28;8859;-70
2023/02/17 11:00:34;;;;;;;;;2.00;2.00;;;;;;;;5019125;28;8811;-71
2023/02/17 11:03:03;;;;;;;;;1.00;1.00;;;;;;;;5021192;28;8841;-73
2023/02/17 11:05:33;;;;;;;;;2.00;2.00;;;;;;;;5039738;28;8872;-69
2023/02/17 11:08:04;;;;;;;;;1.75;1.75;;;;;;;;5035743;28;8859;-71
2023/02/17 11:10:34;;;;;;;;;1.50;1.00;;;;;;;;5038799;28;8886;-72
2023/02/17 11:13:02;;;;;;;;;0.75;0.75;;;;;;;;5037302;28;8840;-70
2023/02/17 11:15:32;;;;;;;;;2.00;2.00;;;;;;;;5032017;28;9947;-70
2023/02/17 11:18:02;;;;;;;;;1.00;1.00;;;;;;;;5037344;28;8854;-72
2023/02/17 11:20:35;;;;;;;;;0.25;0.25;;;;;;;;5018211;28;8882;-72
2023/02/17 11:23:21;;;;;;;;;2.00;2.00;;;;;;;;5037534;28;9668;-72
2023/02/17 11:25:59;;;;;;;;;1.25;1.25;;;;;;;;5030715;28;8879;-72
2023/02/17 11:28:26;;;;;;;;;0.75;0.75;;;;;;;;5034336;28;9311;-72
2023/02/17 11:30:56;;;;;;;;;1.50;1.50;;;;;;;;5020234;28;8810;-71
2023/02/17 11:33:29;;;;;;;;;1.00;1.00;;;;;;;;5038411;28;8874;-73
2023/02/17 11:35:58;;;;;;;;;1.00;1.00;;;;;;;;5041376;28;9672;-72
2023/02/17 11:38:29;;;;;;;;;2.00;2.00;;;;;;;;5042995;28;8844;-72
2023/02/17 11:40:59;;;;;;;;;2.00;2.00;;;;;;;;5044826;28;8865;-75
2023/02/17 11:43:30;;;;;;;;;1.00;1.00;;;;;;;;5038561;28;9816;-72
2023/02/17 11:46:14;;;;;;;;;1.00;1.00;;;;;;;;5043949;28;8860;-71
2023/02/17 11:49:07;;;;;;;;;1.50;0.50;;;;;;;;5041798;28;8842;-73
2023/02/17 11:51:45;;;;;;;;;1.00;1.00;;;;;;;;5013916;28;8870;-71
2023/02/17 11:54:21;;;;;;;;;2.00;2.00;;;;;;;;5038855;28;8861;-74
2023/02/17 11:56:59;;;;;;;;;2.50;1.25;;;;;;;;5037015;28;8977;-73
2023/02/17 11:59:49;;;;;;;;;0.00;0.00;;;;;;;;5046429;28;8861;-73
2023/02/17 12:02:20;;;;;;;;;1.00;1.00;;;;;;;;5036932;28;8807;-73
2023/02/17 12:04:54;;;;;;;;;1.00;1.00;;;;;;;;5039515;28;8897;-72
2023/02/17 12:07:38;;;;;;;;;1.00;0.75;;;;;;;;5013171;28;8862;-70
2023/02/17 12:10:14;;;;;;;;;1.25;1.25;;;;;;;;5025485;28;8851;-72
2023/02/17 12:12:58;;;;;;;;;1.50;1.50;;;;;;;;5041793;28;8838;-72
2023/02/17 12:15:34;;;;;;;;;1.00;1.00;;;;;;;;5041248;28;8831;-73
2023/02/17 12:18:16;;;;;;;;;1.00;1.00;;;;;;;;5043296;28;8886;-72
2023/02/17 12:20:50;;;;;;;;;0.00;0.00;;;;;;;;5036164;28;8862;-71
2023/02/17 12:23:31;;;;;;;;;1.33;1.33;;;;;;;;5034556;28;8966;-71
2023/02/17 12:26:06;;;;;;;;;1.75;1.75;;;;;;;;5036075;28;8883;-71
2023/02/17 12:28:59;;;;;;;;;3.75;3.75;;;;;;;;5042168;28;8868;-72
2023/02/17 12:31:47;;;;;;;;;2.00;2.00;;;;;;;;5016417;28;8818;-71
2023/02/17 12:34:21;;;;;;;;;1.00;1.00;;;;;;;;5041683;28;8875;-72
2023/02/17 12:36:49;;;;;;;;;2.00;2.00;;;;;;;;5043888;28;8846;-72
2023/02/17 12:39:21;;;;;;;;;2.00;2.00;;;;;;;;5042047;28;8867;-72
2023/02/17 12:41:54;;;;;;;;;0.50;0.50;;;;;;;;5042178;28;8844;-72
2023/02/17 12:44:24;;;;;;;;;3.00;3.00;;;;;;;;5039457;28;8854;-71
2023/02/17 12:46:56;;;;;;;;;2.00;2.00;;;;;;;;5036886;28;8854;-71
2023/02/17 12:49:27;;;;;;;;;1.00;1.00;;;;;;;;5042814;28;8870;-70
2023/02/17 12:51:59;;;;;;;;;2.00;2.00;;;;;;;;5038082;28;8855;-71
2023/02/17 12:54:32;;;;;;;;;1.75;1.75;;;;;;;;5038935;28;8889;-71
2023/02/17 12:57:14;;;;;;;;;1.00;1.00;;;;;;;;5020444;28;8839;-72
2023/02/17 12:59:43;;;;;;;;;2.00;2.00;;;;;;;;5042087;28;8855;-72
2023/02/17 13:02:12;;;;;;;;;2.00;2.00;;;;;;;;5041519;28;8795;-72
2023/02/17 13:04:41;;;;;;;;;1.00;1.00;;;;;;;;5022958;28;8956;-73
2023/02/17 13:07:25;;;;;;;;;1.25;1.25;;;;;;;;5042398;28;8865;-73
2023/02/17 13:09:54;;;;;;;;;0.00;0.00;;;;;;;;5041745;28;8829;-73
2023/02/17 13:12:37;;;;;;;;;1.00;1.00;;;;;;;;5041600;28;8847;-74
2023/02/17 13:15:08;;;;;;;;;2.00;2.00;;;;;;;;5043156;28;9628;-74
2023/02/17 13:17:39;;;;;;;;;1.00;1.00;;;;;;;;5022493;28;8839;-72
2023/02/17 13:20:25;;;;;;;;;1.75;1.75;;;;;;;;5036110;28;8869;-71
2023/02/17 13:23:08;;;;;;;;;1.00;1.00;;;;;;;;5034549;28;9783;-73
2023/02/17 13:25:36;;;;;;;;;1.00;1.00;;;;;;;;5040399;28;8890;-71
2023/02/17 13:28:18;;;;;;;;;2.00;0.50;;;;;;;;5037902;28;8966;-71
2023/02/17 13:30:50;;;;;;;;;1.00;1.00;;;;;;;;5046692;28;9555;-70
2023/02/17 13:33:30;;;;;;;;;2.00;2.00;;;;;;;;5036855;28;8948;-70
2023/02/17 13:35:57;;;;;;;;;0.25;0.25;;;;;;;;5045297;28;8860;-71
2023/02/17 13:38:29;;;;;;;;;1.00;1.00;;;;;;;;5040724;28;8901;-70
2023/02/17 13:41:00;;;;;;;;;1.00;1.00;;;;;;;;5038254;28;8842;-71
2023/02/17 13:43:31;;;;;;;;;0.75;0.75;;;;;;;;5041492;28;8929;-70
2023/02/17 13:46:00;;;;;;;;;1.75;1.00;;;;;;;;5022228;28;8873;-71
2023/02/17 13:48:29;;;;;;;;;2.00;1.25;;;;;;;;5036732;28;8877;-71
2023/02/17 13:50:58;;;;;;;;;1.50;1.50;;;;;;;;5038321;28;8841;-71
2023/02/17 13:53:29;;;;;;;;;1.50;1.50;;;;;;;;5038471;28;8874;-71
2023/02/17 13:55:58;;;;;;;;;0.00;0.00;;;;;;;;5045633;28;8829;-71
2023/02/17 13:58:33;;;;;;;;;0.00;0.00;;;;;;;;5042131;28;8885;-71
2023/02/17 14:01:02;;;;;;;;;0.00;0.00;;;;;;;;5034425;28;9791;-70
2023/02/17 14:03:31;;;;;;;;;1.25;1.25;;;;;;;;5037584;28;8892;-71
2023/02/17 14:06:00;;;;;;;;;0.00;0.00;;;;;;;;5038337;28;8853;-71
2023/02/17 14:08:34;;;;;;;;;1.00;1.00;;;;;;;;5038210;28;8855;-71
2023/02/17 14:11:07;;;;;;;;;1.75;1.50;;;;;;;;5040607;28;8879;-70
2023/02/17 14:13:37;;;;;;;;;0.00;0.00;;;;;;;;5040382;28;8928;-71
2023/02/17 14:16:06;;;;;;;;;0.75;0.75;;;;;;;;5036999;28;8851;-69
2023/02/17 14:18:36;;;;;;;;;2.00;1.00;;;;;;;;5040427;28;8927;-70
2023/02/17 14:21:07;;;;;;;;;0.75;0.75;;;;;;;;5040245;28;8864;-69
2023/02/17 14:23:43;;;;;;;;;0.75;0.75;;;;;;;;5045714;28;8985;-70
2023/02/17 14:26:12;;;;;;;;;0.00;0.00;;;;;;;;5022211;28;8970;-71
2023/02/17 14:28:41;;;;;;;;;1.00;1.00;;;;;;;;5041132;28;8870;-70
2023/02/17 14:31:10;;;;;;;;;1.00;1.00;;;;;;;;5017099;28;8799;-70
2023/02/17 14:33:37;;;;;;;;;1.00;1.00;;;;;;;;5036430;28;8855;-70
2023/02/17 14:36:09;;;;;;;;;1.00;1.00;;;;;;;;5043585;28;9678;-70
2023/02/17 14:38:40;;;;;;;;;0.50;0.50;;;;;;;;5037849;28;8858;-70
2023/02/17 14:41:09;;;;;;;;;0.25;0.25;;;;;;;;5036233;28;8875;-71
2023/02/17 14:43:37;;;;;;;;;1.00;1.00;;;;;;;;5041777;28;8851;-70
2023/02/17 14:46:06;;;;;;;;;1.00;1.00;;;;;;;;5041191;28;8875;-70
2023/02/17 14:48:33;;;;;;;;;1.00;1.00;;;;;;;;5019605;28;8858;-70
2023/02/17 14:51:01;;;;;;;;;0.75;0.75;;;;;;;;5006276;28;8871;-70
2023/02/17 14:53:30;;;;;;;;;0.00;0.00;;;;;;;;5036362;28;8838;-69
2023/02/17 14:56:01;;;;;;;;;2.00;0.50;;;;;;;;5045500;28;8864;-71
2023/02/17 14:58:29;;;;;;;;;2.00;0.00;;;;;;;;5039908;28;8852;-70
2023/02/17 15:00:57;;;;;;;;;0.00;0.00;;;;;;;;5038142;28;8797;-70
2023/02/17 15:03:25;;;;;;;;;1.00;1.00;;;;;;;;5039599;28;9656;-70
2023/02/17 15:05:53;;;;;;;;;0.00;0.00;;;;;;;;5040873;28;8820;-71
2023/02/17 15:08:22;;;;;;;;;0.00;0.00;;;;;;;;5044528;28;8869;-70
2023/02/17 15:10:50;;;;;;;;;0.00;0.00;;;;;;;;5050073;28;8877;-70